Time;durP1;ratioP1;P1;durP2;ratioP2;P2;SDS_P1;SDS_P2;PMS_P1;PMS_P2;Temp;Humidity;BMP_temperature;BMP_pressure;BME280_temperature;BME280_humidity;BME280_pressure;Samples;Min_cycle;Max_cycle;Signal;HPM_P1;HPM_P2
2021/07/26 00:02:18;;;;;;;0.22;0.20;;;;;;;-142.37;100.00;59669.53;5014530;28;20030;-58
2021/07/26 00:04:44;;;;;;;0.70;0.47;;;;;;;-142.37;100.00;59669.53;5014951;28;20037;-58
2021/07/26 00:07:10;;;;;;;0.80;0.63;;;;;;;-142.37;100.00;59669.53;5014614;28;20476;-57
2021/07/26 00:09:36;;;;;;;1.13;0.45;;;;;;;-142.37;100.00;59669.53;5014810;28;20465;-57
2021/07/26 00:12:03;;;;;;;1.83;0.80;;;;;;;-142.37;100.00;59669.53;5014614;28;20040;-58
2021/07/26 00:14:29;;;;;;;0.25;0.25;;;;;;;-142.37;100.00;59669.53;5014647;28;20101;-58
2021/07/26 00:16:54;;;;;;;0.45;0.25;;;;;;;-142.37;100.00;59669.53;5014704;28;20122;-57
2021/07/26 00:19:19;;;;;;;0.50;0.30;;;;;;;-142.37;100.00;59669.53;5014431;28;20473;-58
2021/07/26 00:21:45;;;;;;;0.55;0.40;;;;;;;-142.37;100.00;59669.53;5014306;28;20484;-58
2021/07/26 00:24:10;;;;;;;1.25;0.43;;;;;;;-142.37;100.00;59669.53;5013976;28;20468;-57
2021/07/26 00:26:35;;;;;;;0.98;0.30;;;;;;;-142.37;100.00;59669.53;5014480;28;20029;-57
2021/07/26 00:29:01;;;;;;;1.90;0.40;;;;;;;-142.37;100.00;59669.53;5014564;28;20365;-58
2021/07/26 00:31:26;;;;;;;0.70;0.40;;;;;;;-142.37;100.00;59669.53;5014481;28;20049;-58
2021/07/26 00:34:12;;;;;;;1.13;0.47;;;;;;;-142.37;100.00;59669.53;5014334;28;20030;-58
2021/07/26 00:36:39;;;;;;;0.38;0.17;;;;;;;-142.37;100.00;59669.53;5014188;28;20472;-58
2021/07/26 00:39:06;;;;;;;1.23;0.30;;;;;;;-142.37;100.00;59669.53;5014164;28;20034;-57
2021/07/26 00:41:33;;;;;;;0.50;0.38;;;;;;;-142.37;100.00;59669.53;5013944;28;20472;-57
2021/07/26 00:43:59;;;;;;;0.40;0.40;;;;;;;-142.37;100.00;59669.53;5013657;28;20029;-58
2021/07/26 00:46:24;;;;;;;0.70;0.47;;;;;;;-142.37;100.00;59669.53;5013828;28;20377;-58
2021/07/26 00:48:51;;;;;;;0.40;0.30;;;;;;;-142.37;100.00;59669.53;5014153;28;20040;-57
2021/07/26 00:51:17;;;;;;;0.20;0.20;;;;;;;-142.37;100.00;59669.53;5013748;28;20445;-57
2021/07/26 00:53:43;;;;;;;1.45;0.30;;;;;;;-142.37;100.00;59669.53;5014010;28;20052;-58
2021/07/26 00:56:09;;;;;;;0.73;0.30;;;;;;;-142.37;100.00;59669.53;5013464;28;20030;-57
2021/07/26 00:58:34;;;;;;;0.90;0.38;;;;;;;-142.37;100.00;59669.53;5014014;28;20045;-57
2021/07/26 01:01:00;;;;;;;0.98;0.47;;;;;;;-142.37;100.00;59669.53;5013717;28;20145;-58
2021/07/26 01:03:26;;;;;;;0.40;0.20;;;;;;;-142.37;100.00;59669.53;5013802;28;20668;-58
2021/07/26 01:05:51;;;;;;;1.27;0.30;;;;;;;-142.37;100.00;59669.53;5013757;28;20109;-58
2021/07/26 01:08:17;;;;;;;0.55;0.30;;;;;;;-142.37;100.00;59669.53;5013565;28;20108;-57
2021/07/26 01:10:42;;;;;;;0.63;0.25;;;;;;;-142.37;100.00;59669.53;5013918;28;20029;-57
2021/07/26 01:13:07;;;;;;;0.75;0.38;;;;;;;-142.37;100.00;59669.53;5013540;28;20026;-58
2021/07/26 01:15:33;;;;;;;0.63;0.30;;;;;;;-142.37;100.00;59669.53;5013544;28;20061;-57
2021/07/26 01:18:17;;;;;;;0.20;0.20;;;;;;;-142.37;100.00;59669.53;5019196;28;20021;-57
2021/07/26 01:20:42;;;;;;;0.67;0.33;;;;;;;-142.37;100.00;59669.53;5033456;28;20136;-58
2021/07/26 01:23:08;;;;;;;0.40;0.20;;;;;;;-142.37;100.00;59669.53;5033201;28;20104;-57
2021/07/26 01:25:37;;;;;;;1.48;0.63;;;;;;;-142.37;100.00;59669.53;5033099;28;20511;-57
2021/07/26 01:28:03;;;;;;;0.85;0.30;;;;;;;-142.37;100.00;59669.53;5024997;28;20064;-57
2021/07/26 01:30:31;;;;;;;0.40;0.30;;;;;;;-142.37;100.00;59669.53;5013392;28;20029;-57
2021/07/26 01:32:57;;;;;;;1.10;0.50;;;;;;;-142.37;100.00;59669.53;5013479;28;20473;-58
2021/07/26 01:35:22;;;;;;;0.20;0.17;;;;;;;-142.37;100.00;59669.53;5013463;28;20033;-58
2021/07/26 01:37:48;;;;;;;1.30;0.40;;;;;;;-142.37;100.00;59669.53;5013437;28;20017;-58
2021/07/26 01:40:14;;;;;;;1.50;0.40;;;;;;;-142.37;100.00;59669.53;5013215;28;20026;-57
2021/07/26 01:42:43;;;;;;;1.15;0.40;;;;;;;-142.37;100.00;59669.53;5013177;28;20488;-57
2021/07/26 01:45:09;;;;;;;0.73;0.43;;;;;;;-142.37;100.00;59669.53;5013275;28;20105;-57
2021/07/26 01:47:48;;;;;;;0.75;0.30;;;;;;;-142.37;100.00;59669.53;5015566;28;20105;-57
2021/07/26 01:50:18;;;;;;;1.02;0.22;;;;;;;-142.37;100.00;59669.53;5017127;28;20053;-57
2021/07/26 01:52:43;;;;;;;1.20;0.30;;;;;;;-142.37;100.00;59669.53;5017400;28;20030;-58
2021/07/26 01:55:10;;;;;;;1.48;0.60;;;;;;;-142.37;100.00;59669.53;5016965;28;20415;-58
2021/07/26 01:57:35;;;;;;;0.60;0.22;;;;;;;-142.37;100.00;59669.53;5017312;28;20026;-57
2021/07/26 02:00:01;;;;;;;1.58;0.40;;;;;;;-142.37;100.00;59669.53;5016738;28;20037;-58
2021/07/26 02:02:28;;;;;;;0.85;0.50;;;;;;;-142.37;100.00;59669.53;5016984;28;20017;-58
2021/07/26 02:04:55;;;;;;;1.25;0.30;;;;;;;-142.37;100.00;59669.53;5017158;28;20033;-57
2021/07/26 02:07:20;;;;;;;0.40;0.25;;;;;;;-142.37;100.00;59669.53;5017070;28;20487;-57
2021/07/26 02:09:45;;;;;;;1.75;0.85;;;;;;;-142.37;100.00;59669.53;5016861;28;20042;-58
2021/07/26 02:12:11;;;;;;;1.70;0.50;;;;;;;-142.37;100.00;59669.53;5016919;28;20033;-58
2021/07/26 02:14:36;;;;;;;0.43;0.20;;;;;;;-142.37;100.00;59669.53;5017006;28;20049;-57
2021/07/26 02:17:02;;;;;;;0.77;0.20;;;;;;;-142.37;100.00;59669.53;5016635;28;20591;-58
2021/07/26 02:19:27;;;;;;;0.43;0.30;;;;;;;-142.37;100.00;59669.53;5016655;28;20022;-58
2021/07/26 02:21:53;;;;;;;0.35;0.30;;;;;;;-142.37;100.00;59669.53;5016600;28;20026;-57
2021/07/26 02:24:18;;;;;;;1.58;0.25;;;;;;;-142.37;100.00;59669.53;5016625;28;20025;-57
2021/07/26 02:26:44;;;;;;;0.85;0.20;;;;;;;-142.37;100.00;59669.53;5016863;28;20033;-58
2021/07/26 02:29:09;;;;;;;0.82;0.38;;;;;;;-142.37;100.00;59669.53;5016466;28;20407;-58
2021/07/26 02:31:35;;;;;;;0.55;0.20;;;;;;;-142.37;100.00;59669.53;5016776;28;20030;-58
2021/07/26 02:34:00;;;;;;;0.50;0.30;;;;;;;-142.37;100.00;59669.53;5016485;28;20424;-57
2021/07/26 02:36:26;;;;;;;0.45;0.30;;;;;;;-142.37;100.00;59669.53;5016448;28;20018;-57
2021/07/26 02:38:52;;;;;;;0.30;0.30;;;;;;;-142.37;100.00;59669.53;5016196;28;20018;-57
2021/07/26 02:41:17;;;;;;;1.73;0.43;;;;;;;-142.37;100.00;59669.53;5015098;28;20032;-57
2021/07/26 02:43:43;;;;;;;0.30;0.28;;;;;;;-142.37;100.00;59669.53;5016320;28;20022;-57
2021/07/26 02:46:09;;;;;;;0.90;0.50;;;;;;;-142.37;100.00;59669.53;5015995;28;20029;-58
2021/07/26 02:48:36;;;;;;;0.65;0.10;;;;;;;-142.37;100.00;59669.53;5015981;28;20025;-57
2021/07/26 02:51:02;;;;;;;1.40;0.47;;;;;;;-142.37;100.00;59669.53;5016139;28;20060;-57
2021/07/26 02:53:28;;;;;;;1.30;0.22;;;;;;;-142.37;100.00;59669.53;5016136;28;20026;-58
2021/07/26 02:55:53;;;;;;;0.43;0.20;;;;;;;-142.37;100.00;59669.53;5016164;28;20488;-58
2021/07/26 02:58:20;;;;;;;1.38;0.30;;;;;;;-142.37;100.00;59669.53;5015626;28;20683;-57
2021/07/26 03:00:46;;;;;;;0.40;0.20;;;;;;;-142.37;100.00;59669.53;5015938;28;20164;-57
2021/07/26 03:03:11;;;;;;;0.45;0.20;;;;;;;-142.37;100.00;59669.53;5015702;28;20034;-58
2021/07/26 03:05:37;;;;;;;0.38;0.15;;;;;;;-142.37;100.00;59669.53;5015919;28;20028;-58
2021/07/26 03:08:03;;;;;;;0.63;0.30;;;;;;;-142.37;100.00;59669.53;5015724;28;20026;-57
2021/07/26 03:10:28;;;;;;;0.47;0.40;;;;;;;-142.37;100.00;59669.53;5015678;28;20029;-57
2021/07/26 03:12:53;;;;;;;0.47;0.32;;;;;;;-142.37;100.00;59669.53;5015679;28;20484;-58
2021/07/26 03:15:21;;;;;;;1.20;0.43;;;;;;;-142.37;100.00;59669.53;5014557;28;20026;-58
2021/07/26 03:17:46;;;;;;;1.52;0.40;;;;;;;-142.37;100.00;59669.53;5019947;28;20136;-57
2021/07/26 03:20:12;;;;;;;1.27;0.40;;;;;;;-142.37;100.00;59669.53;5031969;28;20045;-57
2021/07/26 03:22:57;;;;;;;1.33;0.20;;;;;;;-142.37;100.00;59669.53;5026481;28;20116;-57
2021/07/26 03:25:23;;;;;;;1.88;0.20;;;;;;;-142.37;100.00;59669.53;5035405;28;20033;-57
2021/07/26 03:27:48;;;;;;;1.40;0.30;;;;;;;-142.37;100.00;59669.53;5035081;28;20033;-58
2021/07/26 03:30:17;;;;;;;0.35;0.25;;;;;;;-142.37;100.00;59669.53;5035129;28;20021;-58
2021/07/26 03:32:44;;;;;;;1.67;0.32;;;;;;;-142.37;100.00;59669.53;5035307;28;20025;-57
2021/07/26 03:35:11;;;;;;;1.35;0.20;;;;;;;-142.37;100.00;59669.53;5035034;28;20022;-57
2021/07/26 03:37:36;;;;;;;1.15;0.40;;;;;;;-142.37;100.00;59669.53;5035041;28;20029;-58
2021/07/26 03:40:03;;;;;;;1.65;0.30;;;;;;;-142.37;100.00;59669.53;5034968;28;20033;-58
2021/07/26 03:42:29;;;;;;;0.85;0.30;;;;;;;-142.37;100.00;59669.53;5034905;28;20031;-57
2021/07/26 03:44:55;;;;;;;0.22;0.20;;;;;;;-142.37;100.00;59669.53;5034937;28;20021;-57
2021/07/26 03:47:22;;;;;;;1.27;0.20;;;;;;;-142.37;100.00;59669.53;5034906;28;20025;-57
2021/07/26 03:49:47;;;;;;;0.85;0.32;;;;;;;-142.37;100.00;59669.53;5035030;28;20383;-57
2021/07/26 03:52:13;;;;;;;0.93;0.28;;;;;;;-142.37;100.00;59669.53;5034799;28;20033;-57
2021/07/26 03:54:38;;;;;;;0.70;0.20;;;;;;;-142.37;100.00;59669.53;5023401;28;20060;-58
2021/07/26 03:57:04;;;;;;;0.85;0.30;;;;;;;-142.37;100.00;59669.53;5014841;28;20098;-58
2021/07/26 03:59:29;;;;;;;1.73;0.80;;;;;;;-142.37;100.00;59669.53;5014691;28;20053;-58
2021/07/26 04:01:55;;;;;;;0.30;0.20;;;;;;;-142.37;100.00;59669.53;5014911;28;20032;-57
2021/07/26 04:04:21;;;;;;;0.55;0.32;;;;;;;-142.37;100.00;59669.53;5014630;28;20080;-57
2021/07/26 04:06:51;;;;;;;1.58;0.40;;;;;;;-142.37;100.00;59669.53;5014611;28;20061;-58
2021/07/26 04:09:17;;;;;;;0.63;0.30;;;;;;;-142.37;100.00;59669.53;5013954;28;20477;-57
2021/07/26 04:11:44;;;;;;;1.40;0.45;;;;;;;-142.37;100.00;59669.53;5013595;28;20036;-58
2021/07/26 04:14:11;;;;;;;0.28;0.15;;;;;;;-142.37;100.00;59669.53;5014414;28;20021;-58
2021/07/26 04:16:36;;;;;;;1.40;0.30;;;;;;;-142.37;100.00;59669.53;5013851;28;20022;-58
2021/07/26 04:19:03;;;;;;;0.20;0.20;;;;;;;-142.37;100.00;59669.53;5027498;28;20013;-58
2021/07/26 04:21:32;;;;;;;0.20;0.10;;;;;;;-142.37;100.00;59669.53;5034163;28;20079;-58
2021/07/26 04:23:59;;;;;;;0.65;0.20;;;;;;;-142.37;100.00;59669.53;5033993;28;20041;-57
2021/07/26 04:26:25;;;;;;;1.10;0.40;;;;;;;-142.37;100.00;59669.53;5034199;28;20729;-58
2021/07/26 04:28:50;;;;;;;1.15;0.25;;;;;;;-142.37;100.00;59669.53;5034362;28;20033;-58
2021/07/26 04:31:16;;;;;;;0.43;0.30;;;;;;;-142.37;100.00;59669.53;5034042;28;20017;-58
2021/07/26 04:33:41;;;;;;;0.50;0.30;;;;;;;-142.37;100.00;59669.53;5034182;28;20029;-58
2021/07/26 04:36:06;;;;;;;0.90;0.25;;;;;;;-142.37;100.00;59669.53;5033766;28;20061;-58
2021/07/26 04:38:32;;;;;;;0.85;0.20;;;;;;;-142.37;100.00;59669.53;5034168;28;20029;-58
2021/07/26 04:40:58;;;;;;;1.23;0.32;;;;;;;-142.37;100.00;59669.53;5033966;28;20017;-58
2021/07/26 04:43:24;;;;;;;0.50;0.17;;;;;;;-142.37;100.00;59669.53;5032379;28;20545;-58
2021/07/26 04:45:50;;;;;;;1.65;0.38;;;;;;;-142.37;100.00;59669.53;5033385;28;20112;-58
2021/07/26 04:48:15;;;;;;;0.63;0.28;;;;;;;-142.37;100.00;59669.53;5033685;28;20029;-58
2021/07/26 04:50:41;;;;;;;0.80;0.30;;;;;;;-142.37;100.00;59669.53;5033665;28;20018;-58
2021/07/26 04:53:06;;;;;;;1.00;0.20;;;;;;;-142.37;100.00;59669.53;5033498;28;20021;-58
2021/07/26 04:55:31;;;;;;;1.70;0.30;;;;;;;-142.37;100.00;59669.53;5033730;28;20465;-58
2021/07/26 04:57:57;;;;;;;0.57;0.20;;;;;;;-142.37;100.00;59669.53;5033714;28;20032;-58
2021/07/26 05:00:26;;;;;;;0.60;0.20;;;;;;;-142.37;100.00;59669.53;5033460;28;20046;-58
2021/07/26 05:02:51;;;;;;;0.38;0.30;;;;;;;-142.37;100.00;59669.53;5033243;28;20075;-58
2021/07/26 05:05:17;;;;;;;0.77;0.30;;;;;;;-142.37;100.00;59669.53;5033649;28;20485;-58
2021/07/26 05:07:43;;;;;;;0.50;0.10;;;;;;;-142.37;100.00;59669.53;5033477;28;20025;-58
2021/07/26 05:10:10;;;;;;;2.47;0.20;;;;;;;-142.37;100.00;59669.53;5033072;28;20061;-58
2021/07/26 05:12:35;;;;;;;0.13;0.10;;;;;;;-142.37;100.00;59669.53;5033517;28;20030;-58
2021/07/26 05:15:00;;;;;;;0.30;0.20;;;;;;;-142.37;100.00;59669.53;5033370;28;20029;-58
2021/07/26 05:17:28;;;;;;;1.75;0.38;;;;;;;-142.37;100.00;59669.53;5031918;28;20018;-59
2021/07/26 05:19:54;;;;;;;0.30;0.28;;;;;;;-142.37;100.00;59669.53;5013485;28;20034;-58
2021/07/26 05:22:20;;;;;;;3.90;0.20;;;;;;;-142.37;100.00;59669.53;5012456;28;20038;-58
2021/07/26 05:24:46;;;;;;;0.03;0.03;;;;;;;-142.37;100.00;59669.53;5013495;28;20039;-58
2021/07/26 05:27:12;;;;;;;0.65;0.20;;;;;;;-142.37;100.00;59669.53;5013166;28;20473;-58
2021/07/26 05:29:38;;;;;;;0.38;0.10;;;;;;;-142.37;100.00;59669.53;5013585;28;20029;-58
2021/07/26 05:32:03;;;;;;;0.10;0.10;;;;;;;-142.37;100.00;59669.53;5013086;28;20030;-58
2021/07/26 05:34:29;;;;;;;0.90;0.30;;;;;;;-142.37;100.00;59669.53;5013146;28;20072;-58
2021/07/26 05:36:54;;;;;;;0.47;0.13;;;;;;;-142.37;100.00;59669.53;5013312;28;20030;-58
2021/07/26 05:39:23;;;;;;;0.52;0.22;;;;;;;-142.37;100.00;59669.53;5013415;28;20464;-57
2021/07/26 05:41:48;;;;;;;1.25;0.30;;;;;;;-142.37;100.00;59669.53;5013282;28;20068;-58
2021/07/26 05:44:14;;;;;;;0.55;0.30;;;;;;;-142.37;100.00;59669.53;5013167;28;20412;-59
2021/07/26 05:46:40;;;;;;;1.20;0.20;;;;;;;-142.37;100.00;59669.53;5013255;28;20066;-58
2021/07/26 05:49:05;;;;;;;0.85;0.30;;;;;;;-142.37;100.00;59669.53;5012956;28;20036;-58
2021/07/26 05:51:30;;;;;;;0.52;0.10;;;;;;;-142.37;100.00;59669.53;5013103;28;20109;-58
2021/07/26 05:53:56;;;;;;;0.65;0.20;;;;;;;-142.37;100.00;59669.53;5013296;28;20473;-58
2021/07/26 05:56:21;;;;;;;0.38;0.20;;;;;;;-142.37;100.00;59669.53;5013198;28;20030;-57
2021/07/26 05:58:49;;;;;;;0.55;0.20;;;;;;;-142.37;100.00;59669.53;5012966;28;20076;-58
2021/07/26 06:03:59;;;;;;;0.22;0.13;;;;;;;-142.37;100.00;59669.53;5013177;28;20073;-63
2021/07/26 06:06:24;;;;;;;0.35;0.25;;;;;;;-142.37;100.00;59669.53;5013010;28;20037;-63
2021/07/26 06:08:49;;;;;;;0.30;0.30;;;;;;;-142.37;100.00;59669.53;5013114;28;20133;-63
2021/07/26 06:11:15;;;;;;;0.63;0.20;;;;;;;-142.37;100.00;59669.53;5020382;28;20067;-62
2021/07/26 06:13:40;;;;;;;0.57;0.30;;;;;;;-142.37;100.00;59669.53;5028674;28;20024;-63
2021/07/26 06:16:07;;;;;;;1.92;0.22;;;;;;;-142.37;100.00;59669.53;5012768;28;20026;-63
2021/07/26 06:18:33;;;;;;;0.43;0.32;;;;;;;-142.37;100.00;59669.53;5023208;28;20025;-62
2021/07/26 06:20:58;;;;;;;1.05;0.52;;;;;;;-142.37;100.00;59669.53;5032660;28;20518;-63
2021/07/26 06:23:26;;;;;;;0.28;0.28;;;;;;;-142.37;100.00;59669.53;5032188;28;20482;-63
2021/07/26 06:25:51;;;;;;;1.85;0.30;;;;;;;-142.37;100.00;59669.53;5032670;28;20021;-62
2021/07/26 06:28:17;;;;;;;0.20;0.10;;;;;;;-142.37;100.00;59669.53;5032495;28;20091;-63
2021/07/26 06:30:42;;;;;;;0.52;0.30;;;;;;;-142.37;100.00;59669.53;5032645;28;20476;-63
2021/07/26 06:33:09;;;;;;;0.43;0.30;;;;;;;-142.37;100.00;59669.53;5033683;28;20029;-63
2021/07/26 06:35:34;;;;;;;0.45;0.28;;;;;;;-142.37;100.00;59669.53;5036176;28;20375;-62
2021/07/26 06:37:59;;;;;;;0.20;0.20;;;;;;;-142.37;100.00;59669.53;5036195;28;20026;-62
2021/07/26 06:40:25;;;;;;;0.35;0.20;;;;;;;-142.37;100.00;59669.53;5036180;28;20401;-63
2021/07/26 06:42:50;;;;;;;0.98;0.25;;;;;;;-142.37;100.00;59669.53;5036188;28;20049;-62
2021/07/26 06:45:15;;;;;;;0.30;0.20;;;;;;;-142.37;100.00;59669.53;5035852;28;20036;-62
2021/07/26 06:47:43;;;;;;;0.10;0.10;;;;;;;-142.37;100.00;59669.53;5034720;28;20052;-62
2021/07/26 06:50:09;;;;;;;0.98;0.60;;;;;;;-142.37;100.00;59669.53;5019340;28;20048;-63
2021/07/26 06:52:35;;;;;;;0.20;0.20;;;;;;;-142.37;100.00;59669.53;5020331;28;20026;-62
2021/07/26 06:55:00;;;;;;;2.25;0.45;;;;;;;-142.37;100.00;59669.53;5020402;28;20465;-63
2021/07/26 06:57:25;;;;;;;1.02;0.30;;;;;;;-142.37;100.00;59669.53;5018712;28;20028;-63
2021/07/26 06:59:51;;;;;;;0.20;0.20;;;;;;;-142.37;100.00;59669.53;5023568;28;20042;-62
2021/07/26 07:02:16;;;;;;;1.25;0.30;;;;;;;-142.37;100.00;59669.53;5024920;28;20499;-62
2021/07/26 07:04:41;;;;;;;0.32;0.25;;;;;;;-142.37;100.00;59669.53;5033766;28;20022;-62
2021/07/26 07:07:07;;;;;;;0.75;0.30;;;;;;;-142.37;100.00;59669.53;5035369;28;20029;-62
2021/07/26 07:09:33;;;;;;;0.20;0.20;;;;;;;-142.37;100.00;59669.53;5035242;28;20521;-63
2021/07/26 07:11:58;;;;;;;0.30;0.30;;;;;;;-142.37;100.00;59669.53;5034844;28;20029;-62
2021/07/26 07:14:23;;;;;;;1.27;0.30;;;;;;;-142.37;100.00;59669.53;5033736;28;20026;-63
2021/07/26 07:16:49;;;;;;;0.73;0.30;;;;;;;-142.37;100.00;59669.53;5035461;28;20025;-62
2021/07/26 07:19:14;;;;;;;1.70;0.43;;;;;;;-142.37;100.00;59669.53;5034164;28;20032;-63
2021/07/26 07:21:39;;;;;;;1.80;0.40;;;;;;;-142.37;100.00;59669.53;5034643;28;20033;-62
2021/07/26 07:24:05;;;;;;;0.65;0.20;;;;;;;-142.37;100.00;59669.53;5034538;28;20029;-63
2021/07/26 07:26:35;;;;;;;1.27;0.40;;;;;;;-142.37;100.00;59669.53;5034457;28;20100;-62
2021/07/26 07:29:01;;;;;;;0.35;0.20;;;;;;;-142.37;100.00;59669.53;5034381;28;20032;-62
2021/07/26 07:31:27;;;;;;;0.22;0.20;;;;;;;-142.37;100.00;59669.53;5030040;28;20025;-63
2021/07/26 07:33:58;;;;;;;1.30;0.47;;;;;;;-142.37;100.00;59669.53;5032488;28;20071;-62
2021/07/26 07:36:25;;;;;;;0.45;0.20;;;;;;;-142.37;100.00;59669.53;5033041;28;20028;-63
2021/07/26 07:38:51;;;;;;;0.30;0.30;;;;;;;-142.37;100.00;59669.53;5033568;28;20029;-62
2021/07/26 07:41:17;;;;;;;0.22;0.20;;;;;;;-142.37;100.00;59669.53;5034314;28;20061;-62
2021/07/26 07:43:43;;;;;;;0.47;0.40;;;;;;;-142.37;100.00;59669.53;5034276;28;20056;-63
2021/07/26 07:46:09;;;;;;;1.15;0.22;;;;;;;-142.37;100.00;59669.53;5032468;28;20084;-62
2021/07/26 07:48:35;;;;;;;0.85;0.38;;;;;;;-142.37;100.00;59669.53;5028429;28;20037;-63
2021/07/26 07:51:01;;;;;;;0.70;0.32;;;;;;;-142.37;100.00;59669.53;5034488;28;20032;-62
2021/07/26 07:53:27;;;;;;;1.73;0.30;;;;;;;-142.37;100.00;59669.53;5033130;28;20013;-62
2021/07/26 07:55:52;;;;;;;0.70;0.20;;;;;;;-142.37;100.00;59669.53;5025895;28;20037;-62
2021/07/26 07:58:19;;;;;;;0.85;0.30;;;;;;;-142.37;100.00;59669.53;5034394;28;20657;-63
2021/07/26 08:00:44;;;;;;;1.67;0.40;;;;;;;-142.37;100.00;59669.53;5033123;28;20069;-58
2021/07/26 08:03:10;;;;;;;0.52;0.30;;;;;;;-142.37;100.00;59669.53;5028815;28;20029;-56
2021/07/26 08:05:35;;;;;;;1.08;0.50;;;;;;;-142.37;100.00;59669.53;5033556;28;20211;-57
2021/07/26 08:08:01;;;;;;;0.77;0.20;;;;;;;-142.37;100.00;59669.53;5025273;28;20373;-57
2021/07/26 08:10:27;;;;;;;0.45;0.30;;;;;;;-142.37;100.00;59669.53;5014771;28;20057;-57
2021/07/26 08:12:52;;;;;;;0.40;0.20;;;;;;;-142.37;100.00;59669.53;5014840;28;20376;-58
2021/07/26 08:15:18;;;;;;;2.35;0.50;;;;;;;-142.37;100.00;59669.53;5013391;28;20384;-57
2021/07/26 08:17:45;;;;;;;0.50;0.20;;;;;;;-142.37;100.00;59669.53;5017874;28;20040;-57
2021/07/26 08:20:13;;;;;;;1.08;0.40;;;;;;;-142.37;100.00;59669.53;5034231;28;20392;-58
2021/07/26 08:22:39;;;;;;;0.55;0.40;;;;;;;-142.37;100.00;59669.53;5034295;28;20025;-57
2021/07/26 08:25:05;;;;;;;0.95;0.43;;;;;;;-142.37;100.00;59669.53;5034239;28;20142;-57
2021/07/26 08:27:31;;;;;;;0.50;0.30;;;;;;;-142.37;100.00;59669.53;5034127;28;20035;-57
2021/07/26 08:29:57;;;;;;;1.48;0.35;;;;;;;-142.37;100.00;59669.53;5033476;28;20029;-57
2021/07/26 08:32:22;;;;;;;2.15;0.50;;;;;;;-142.37;100.00;59669.53;5033873;28;20025;-58
2021/07/26 08:34:48;;;;;;;0.80;0.35;;;;;;;-142.37;100.00;59669.53;5024682;28;20487;-57
2021/07/26 08:37:13;;;;;;;0.47;0.40;;;;;;;-142.37;100.00;59669.53;5033525;28;20052;-57
2021/07/26 08:39:39;;;;;;;1.20;0.43;;;;;;;-142.37;100.00;59669.53;5033254;28;20100;-57
2021/07/26 08:42:05;;;;;;;0.50;0.38;;;;;;;-142.37;100.00;59669.53;5033273;28;20108;-57
2021/07/26 08:44:33;;;;;;;1.45;0.40;;;;;;;-142.37;100.00;59669.53;5022588;28;20104;-57
2021/07/26 08:47:02;;;;;;;1.95;0.50;;;;;;;-142.37;100.00;59669.53;5032348;28;20029;-58
2021/07/26 08:49:28;;;;;;;0.77;0.40;;;;;;;-142.37;100.00;59669.53;5032185;28;20104;-58
2021/07/26 08:51:56;;;;;;;0.55;0.40;;;;;;;-142.37;100.00;59669.53;5029602;28;20112;-57
2021/07/26 08:54:23;;;;;;;1.33;0.57;;;;;;;-142.37;100.00;59669.53;5017898;28;20104;-57
2021/07/26 08:56:51;;;;;;;0.60;0.30;;;;;;;-142.37;100.00;59669.53;5017490;28;20025;-57
2021/07/26 08:59:16;;;;;;;0.93;0.50;;;;;;;-142.37;100.00;59669.53;5032644;23;20040;-57
2021/07/26 09:01:43;;;;;;;1.25;0.60;;;;;;;-142.37;100.00;59669.53;5052370;28;20602;-57
2021/07/26 09:04:08;;;;;;;0.40;0.40;;;;;;;-142.37;100.00;59669.53;5052177;28;20108;-57
2021/07/26 09:06:34;;;;;;;1.00;0.35;;;;;;;-142.37;100.00;59669.53;5051063;28;20442;-57
2021/07/26 09:08:59;;;;;;;1.70;0.50;;;;;;;-142.37;100.00;59669.53;5053285;28;20036;-57
2021/07/26 09:11:25;;;;;;;1.38;0.50;;;;;;;-142.37;100.00;59669.53;5053026;28;20667;-57
2021/07/26 09:13:50;;;;;;;1.15;0.40;;;;;;;-142.37;100.00;59669.53;5050764;28;20029;-57
2021/07/26 09:16:21;;;;;;;0.43;0.30;;;;;;;-142.37;100.00;59669.53;5032856;28;20428;-57
2021/07/26 09:19:00;;;;;;;1.08;0.43;;;;;;;-142.37;100.00;59669.53;5050219;28;20375;-57
2021/07/26 09:21:51;;;;;;;0.50;0.40;;;;;;;-142.37;100.00;59669.53;5044256;28;20021;-57
2021/07/26 09:24:29;;;;;;;0.63;0.30;;;;;;;-142.37;100.00;59669.53;5032227;28;20071;-57
2021/07/26 09:27:07;;;;;;;2.10;0.40;;;;;;;-142.37;100.00;59669.53;5032311;28;20052;-57
2021/07/26 09:29:32;;;;;;;0.98;0.40;;;;;;;-142.37;100.00;59669.53;5033328;28;20028;-57
2021/07/26 09:32:03;;;;;;;1.33;0.47;;;;;;;-142.37;100.00;59669.53;5033015;28;20033;-57
2021/07/26 09:34:29;;;;;;;0.55;0.30;;;;;;;-142.37;100.00;59669.53;5032641;28;20048;-56
2021/07/26 09:36:56;;;;;;;0.20;0.20;;;;;;;-142.37;100.00;59669.53;5037400;28;20075;-57
2021/07/26 09:39:26;;;;;;;0.70;0.47;;;;;;;-142.37;100.00;59669.53;5051810;28;20055;-57
2021/07/26 09:41:53;;;;;;;1.00;0.35;;;;;;;-142.37;100.00;59669.53;5051679;28;20029;-57
2021/07/26 09:44:27;;;;;;;1.40;0.47;;;;;;;-142.37;100.00;59669.53;5039758;28;21706;-56
2021/07/26 09:47:13;;;;;;;0.97;0.50;;;;;;;-142.37;100.00;59669.53;5046237;28;20067;-57
2021/07/26 09:49:38;;;;;;;0.30;0.30;;;;;;;-142.37;100.00;59669.53;5038347;28;20026;-56
2021/07/26 09:52:08;;;;;;;0.50;0.32;;;;;;;-142.37;100.00;59669.53;5042716;28;20031;-57
2021/07/26 09:54:44;;;;;;;1.58;0.30;;;;;;;-142.37;100.00;59669.53;5047544;28;20025;-57
2021/07/26 09:57:17;;;;;;;0.77;0.40;;;;;;;-142.37;100.00;59669.53;5050595;28;20443;-57
2021/07/26 09:59:46;;;;;;;1.90;0.63;;;;;;;-142.37;100.00;59669.53;5051370;28;20509;-57
2021/07/26 10:02:16;;;;;;;1.20;0.40;;;;;;;-142.37;100.00;59669.53;5041672;28;20037;-57
2021/07/26 10:04:43;;;;;;;0.77;0.40;;;;;;;-142.37;100.00;59669.53;5037446;28;20033;-56
2021/07/26 10:07:11;;;;;;;0.30;0.30;;;;;;;-142.37;100.00;59669.53;5034146;28;20025;-56
2021/07/26 10:09:39;;;;;;;1.13;0.50;;;;;;;-142.37;100.00;59669.53;5034921;28;20037;-57
2021/07/26 10:12:05;;;;;;;0.80;0.50;;;;;;;-142.37;100.00;59669.53;5035121;28;20041;-57
2021/07/26 10:14:32;;;;;;;0.95;0.35;;;;;;;-142.37;100.00;59669.53;5035514;28;20028;-57
2021/07/26 10:17:00;;;;;;;1.17;0.47;;;;;;;-142.37;100.00;59669.53;5034295;28;20026;-57
2021/07/26 10:19:26;;;;;;;0.93;0.63;;;;;;;-142.37;100.00;59669.53;5035441;28;20033;-57
2021/07/26 10:21:57;;;;;;;0.80;0.40;;;;;;;-142.37;100.00;59669.53;5035066;28;20029;-56
2021/07/26 10:24:24;;;;;;;0.30;0.20;;;;;;;-142.37;100.00;59669.53;5035225;28;20044;-56
2021/07/26 10:26:51;;;;;;;2.40;0.47;;;;;;;-142.37;100.00;59669.53;5035373;28;20018;-57
2021/07/26 10:29:16;;;;;;;0.40;0.40;;;;;;;-142.37;100.00;59669.53;5036014;28;20656;-56
2021/07/26 10:31:44;;;;;;;0.93;0.40;;;;;;;-142.37;100.00;59669.53;5035676;28;20029;-57
2021/07/26 10:34:09;;;;;;;0.55;0.30;;;;;;;-142.37;100.00;59669.53;5036248;28;20022;-57
2021/07/26 10:36:40;;;;;;;1.02;0.40;;;;;;;-142.37;100.00;59669.53;5036151;28;20064;-57
2021/07/26 10:39:12;;;;;;;1.05;0.40;;;;;;;-142.37;100.00;59669.53;5035929;28;20033;-58
2021/07/26 10:41:43;;;;;;;0.63;0.30;;;;;;;-142.37;100.00;59669.53;5036299;28;20080;-57
2021/07/26 10:44:18;;;;;;;1.10;0.35;;;;;;;-142.37;100.00;59669.53;5035949;28;20040;-57
2021/07/26 10:49:50;;;;;;;0.30;0.30;;;;;;;-142.37;100.00;59669.53;5036072;28;20480;-57
2021/07/26 10:52:21;;;;;;;0.55;0.40;;;;;;;-142.37;100.00;59669.53;5035818;28;20025;-57
2021/07/26 10:54:47;;;;;;;0.88;0.20;;;;;;;-142.37;100.00;59669.53;5035534;28;20033;-57
2021/07/26 10:57:13;;;;;;;0.68;0.60;;;;;;;-142.37;100.00;59669.53;5035601;28;20068;-57
2021/07/26 11:00:07;;;;;;;2.20;0.82;;;;;;;-142.37;100.00;59669.53;5035454;28;20252;-57
2021/07/26 11:02:36;;;;;;;1.27;0.45;;;;;;;-142.37;100.00;59669.53;5035516;28;20472;-56
2021/07/26 11:05:24;;;;;;;1.80;0.40;;;;;;;-142.37;100.00;59669.53;5035732;28;20033;-56
2021/07/26 11:08:12;;;;;;;1.88;0.43;;;;;;;-142.37;100.00;59669.53;5035611;28;20071;-57
2021/07/26 11:10:43;;;;;;;0.55;0.50;;;;;;;-142.37;100.00;59669.53;5035509;28;20040;-56
2021/07/26 11:13:09;;;;;;;0.50;0.50;;;;;;;-142.37;100.00;59669.53;5035203;28;20390;-56
2021/07/26 11:15:44;;;;;;;0.40;0.20;;;;;;;-142.37;100.00;59669.53;5034903;28;20026;-56